Time;durP1;ratioP1;P1;durP2;ratioP2;P2;SDS_P1;SDS_P2;PMS_P1;PMS_P2;Temp;Humidity;BMP_temperature;BMP_pressure;BME280_temperature;BME280_humidity;BME280_pressure;Samples;Min_cycle;Max_cycle;Signal;HPM_P1;HPM_P2
2023/08/22 00:02:58;;;;;;;10.35;3.30;;;;;;;20.98;61.89;100296.69;10388017;28;20046;-63
2023/08/22 00:08:00;;;;;;;8.13;3.65;;;;;;;20.85;62.34;100295.34;10387162;28;20127;-63
2023/08/22 00:13:03;;;;;;;9.70;3.70;;;;;;;20.86;62.20;100297.88;10387889;28;20053;-64
2023/08/22 00:18:05;;;;;;;5.75;3.47;;;;;;;20.83;62.03;100287.50;10399659;28;20049;-64
2023/08/22 00:23:07;;;;;;;6.38;3.08;;;;;;;20.81;62.18;100291.31;10386975;28;20095;-63
2023/08/22 00:28:09;;;;;;;6.38;3.30;;;;;;;20.76;62.31;100285.59;10387124;28;20052;-63
2023/08/22 00:33:11;;;;;;;5.43;3.10;;;;;;;20.68;62.51;100286.31;10386506;28;20038;-63
2023/08/22 00:38:13;;;;;;;5.25;3.55;;;;;;;20.68;62.61;100282.84;10401875;28;20124;-64
2023/08/22 00:43:15;;;;;;;7.35;2.92;;;;;;;20.62;62.68;100268.31;10412253;28;20091;-64
2023/08/22 00:48:17;;;;;;;12.00;4.90;;;;;;;20.50;62.77;100261.47;10395357;28;20056;-64
2023/08/22 00:53:19;;;;;;;7.90;3.30;;;;;;;20.54;62.72;100252.22;10394657;28;20211;-64
2023/08/22 00:58:22;;;;;;;5.57;2.92;;;;;;;20.45;62.71;100244.31;10399321;28;20628;-64
2023/08/22 01:03:24;;;;;;;6.55;3.38;;;;;;;20.34;62.96;100250.66;10398946;28;20041;-64
2023/08/22 01:08:39;;;;;;;12.05;4.15;;;;;;;20.23;63.37;100245.53;10397494;28;20053;-64
2023/08/22 01:13:45;;;;;;;6.07;3.45;;;;;;;20.17;63.04;100238.16;10393607;28;20355;-64
2023/08/22 01:18:48;;;;;;;5.80;3.50;;;;;;;20.06;63.56;100240.97;10397879;28;20041;-64
2023/08/22 01:23:50;;;;;;;6.15;3.53;;;;;;;19.90;63.70;100241.59;10395434;28;20544;-64
2023/08/22 01:28:57;;;;;;;5.60;3.47;;;;;;;19.89;63.76;100241.69;10394910;28;20199;-64
2023/08/22 01:34:20;;;;;;;6.22;3.08;;;;;;;19.79;64.07;100252.31;10408199;28;20051;-64
2023/08/22 01:39:24;;;;;;;8.63;3.05;;;;;;;19.79;63.59;100251.47;10391311;28;20091;-65
2023/08/22 01:44:28;;;;;;;5.55;3.30;;;;;;;19.74;63.91;100256.38;10396008;28;20093;-64
2023/08/22 01:49:33;;;;;;;5.13;3.05;;;;;;;19.68;64.01;100260.44;10396999;28;20049;-64
2023/08/22 01:54:37;;;;;;;6.03;3.70;;;;;;;19.64;63.81;100258.22;10387282;28;21264;-65
2023/08/22 01:59:39;;;;;;;5.53;3.10;;;;;;;19.51;64.39;100263.81;10394693;28;20514;-64
2023/08/22 02:04:41;;;;;;;6.30;3.13;;;;;;;19.58;64.26;100258.78;10402526;28;20096;-64
2023/08/22 02:09:44;;;;;;;11.15;4.07;;;;;;;19.56;64.37;100258.09;10394133;28;20522;-61
2023/08/22 02:14:46;;;;;;;6.15;3.20;;;;;;;19.63;63.94;100267.13;10384258;28;20529;-62
2023/08/22 02:19:48;;;;;;;5.80;3.25;;;;;;;19.51;64.34;100262.97;10428701;28;20038;-62
2023/08/22 02:24:49;;;;;;;7.68;3.60;;;;;;;19.24;64.64;100267.16;10401118;28;20053;-61
2023/08/22 02:29:51;;;;;;;8.68;3.40;;;;;;;19.10;64.83;100270.22;10398018;28;20041;-62
2023/08/22 02:34:55;;;;;;;6.57;3.45;;;;;;;19.17;64.95;100276.66;10395210;28;20456;-65
2023/08/22 02:39:57;;;;;;;8.00;3.83;;;;;;;19.23;65.00;100264.66;10412138;28;20474;-62
2023/08/22 02:44:59;;;;;;;7.05;3.17;;;;;;;19.23;64.70;100268.13;10398064;28;20030;-62
2023/08/22 02:50:01;;;;;;;5.70;3.13;;;;;;;19.17;64.75;100255.44;10396906;28;20064;-62
2023/08/22 02:55:04;;;;;;;5.60;3.20;;;;;;;19.21;64.47;100256.84;10398861;28;20052;-62
2023/08/22 03:00:08;;;;;;;8.77;3.33;;;;;;;19.21;64.87;100254.19;10429472;28;20050;-63
2023/08/22 03:05:13;;;;;;;6.53;3.30;;;;;;;19.16;64.59;100253.75;10408033;28;20049;-65
2023/08/22 03:10:17;;;;;;;7.22;3.10;;;;;;;19.13;64.97;100253.19;10404809;28;20060;-62
2023/08/22 03:15:19;;;;;;;5.40;3.38;;;;;;;19.12;64.82;100246.19;10404645;28;20049;-61
2023/08/22 03:20:21;;;;;;;5.32;3.45;;;;;;;19.10;64.84;100250.81;10425107;28;20037;-62
2023/08/22 03:25:24;;;;;;;7.53;4.03;;;;;;;19.03;64.72;100252.34;10388719;28;20056;-62
2023/08/22 03:30:26;;;;;;;7.25;3.20;;;;;;;18.94;64.91;100251.31;10387215;28;20052;-62
2023/08/22 03:35:28;;;;;;;6.82;3.00;;;;;;;18.86;65.11;100245.03;10388390;28;20140;-64
2023/08/22 03:40:30;;;;;;;4.80;3.30;;;;;;;18.86;65.21;100248.50;10387691;28;20046;-63
2023/08/22 03:45:32;;;;;;;8.30;3.50;;;;;;;18.77;65.38;100246.66;10404687;28;20046;-64
2023/08/22 03:50:34;;;;;;;6.45;3.20;;;;;;;18.67;65.38;100245.81;10414743;28;20093;-64
2023/08/22 03:55:36;;;;;;;8.70;3.20;;;;;;;18.62;65.17;100254.19;10390738;28;20701;-63
2023/08/22 04:00:38;;;;;;;6.50;3.63;;;;;;;18.60;65.80;100257.94;10393312;28;20490;-63
2023/08/22 04:05:42;;;;;;;6.90;3.20;;;;;;;18.63;65.83;100270.91;10402520;28;20521;-64
2023/08/22 04:10:44;;;;;;;5.07;2.95;;;;;;;18.63;65.31;100262.94;10387329;28;20403;-64
2023/08/22 04:15:46;;;;;;;6.90;3.40;;;;;;;18.55;66.04;100271.56;10392652;28;20379;-63
2023/08/22 04:20:48;;;;;;;5.25;3.67;;;;;;;18.55;65.83;100268.09;10408615;28;20084;-63
2023/08/22 04:25:50;;;;;;;8.23;3.22;;;;;;;18.53;65.93;100264.72;10391495;28;20519;-63
2023/08/22 04:30:57;;;;;;;6.10;3.17;;;;;;;18.53;66.05;100264.72;10392086;28;20053;-64
2023/08/22 04:36:00;;;;;;;7.35;3.20;;;;;;;18.57;65.58;100276.72;10400416;28;20045;-65
2023/08/22 04:41:08;;;;;;;4.40;2.85;;;;;;;18.53;65.86;100264.72;10406243;28;20045;-64
2023/08/22 04:46:21;;;;;;;8.95;3.60;;;;;;;18.48;65.78;100267.78;10421425;28;20045;-63
2023/08/22 04:51:23;;;;;;;4.90;3.13;;;;;;;18.60;65.43;100265.88;10403725;28;20468;-63
2023/08/22 04:56:25;;;;;;;4.72;2.80;;;;;;;18.74;65.18;100267.31;10402727;28;20455;-62
2023/08/22 05:01:28;;;;;;;8.05;3.10;;;;;;;18.88;64.86;100265.13;10384867;28;20147;-63
2023/08/22 05:06:32;;;;;;;5.57;3.53;;;;;;;19.07;64.69;100267.84;10387061;28;20509;-63
2023/08/22 05:11:35;;;;;;;5.13;3.10;;;;;;;19.20;64.65;100268.41;10397507;28;20053;-63
2023/08/22 05:16:38;;;;;;;7.38;3.25;;;;;;;19.29;64.44;100267.59;10391224;28;21062;-62
2023/08/22 05:21:41;;;;;;;7.25;3.17;;;;;;;19.22;64.33;100261.16;10393667;28;20182;-63
2023/08/22 05:26:43;;;;;;;5.80;3.03;;;;;;;19.30;64.32;100266.59;10388930;28;20585;-64
2023/08/22 05:31:46;;;;;;;6.10;3.33;;;;;;;19.44;63.71;100262.69;10424581;28;20615;-64
2023/08/22 05:36:48;;;;;;;5.78;3.13;;;;;;;19.54;63.63;100260.03;10408764;28;20524;-62
2023/08/22 05:41:50;;;;;;;8.73;2.95;;;;;;;19.51;63.62;100268.25;10427739;28;20041;-64
2023/08/22 05:46:54;;;;;;;5.22;3.28;;;;;;;19.73;63.44;100267.97;10409961;28;20042;-64
2023/08/22 05:52:06;;;;;;;5.85;3.53;;;;;;;19.94;63.29;100272.16;10398368;28;20053;-64
2023/08/22 05:57:08;;;;;;;6.00;3.13;;;;;;;20.16;62.73;100266.53;10397603;28;20049;-64
2023/08/22 06:02:10;;;;;;;7.07;3.28;;;;;;;20.10;62.59;100269.75;10395363;28;20678;-64
2023/08/22 06:07:12;;;;;;;8.07;3.40;;;;;;;20.13;62.76;100276.59;10405151;28;20130;-64
2023/08/22 06:12:14;;;;;;;6.95;3.53;;;;;;;20.18;62.89;100271.69;10396028;28;20592;-64
2023/08/22 06:17:16;;;;;;;6.45;3.15;;;;;;;20.41;62.55;100274.81;10375393;28;20107;-64
2023/08/22 06:22:19;;;;;;;6.60;3.17;;;;;;;20.68;61.85;100278.34;10410521;28;20104;-64
2023/08/22 06:27:21;;;;;;;5.25;3.20;;;;;;;20.82;61.78;100285.84;10396317;28;20114;-64
2023/08/22 06:32:23;;;;;;;4.85;2.72;;;;;;;20.95;61.20;100278.34;10397809;28;20145;-64
2023/08/22 06:37:25;;;;;;;5.93;3.53;;;;;;;21.35;60.99;100288.63;10405939;28;20486;-65
2023/08/22 06:42:28;;;;;;;5.22;2.70;;;;;;;22.08;59.58;100274.09;10395096;28;20053;-65
2023/08/22 06:47:30;;;;;;;4.28;2.55;;;;;;;22.58;58.65;100274.19;10404885;28;20221;-65
2023/08/22 06:52:32;;;;;;;5.15;2.53;;;;;;;22.70;58.58;100273.75;10392566;28;20053;-65
2023/08/22 06:57:35;;;;;;;4.40;2.35;;;;;;;22.92;58.41;100267.03;10395668;28;20041;-65
2023/08/22 07:02:45;;;;;;;4.10;2.60;;;;;;;23.21;57.41;100278.09;10391735;28;20584;-65
2023/08/22 07:07:47;;;;;;;6.45;2.90;;;;;;;23.45;57.03;100278.16;10389774;28;20049;-65
2023/08/22 07:12:49;;;;;;;4.53;2.70;;;;;;;23.52;56.91;100275.66;10390172;28;20059;-65
2023/08/22 07:17:51;;;;;;;7.10;2.47;;;;;;;23.42;56.69;100274.97;10393932;28;20041;-65
2023/08/22 07:22:53;;;;;;;6.13;2.90;;;;;;;23.45;56.76;100274.66;10391149;28;20240;-65
2023/08/22 07:27:55;;;;;;;4.40;1.80;;;;;;;23.75;56.27;100270.50;10388844;28;20045;-65
2023/08/22 07:32:58;;;;;;;3.15;2.20;;;;;;;24.40;55.50;100260.53;10389219;28;20061;-62
2023/08/22 07:38:00;;;;;;;3.92;1.80;;;;;;;24.67;54.65;100268.13;10389915;28;20107;-64
2023/08/22 07:43:04;;;;;;;4.72;2.33;;;;;;;25.65;53.26;100268.22;10389343;28;20045;-64
2023/08/22 07:48:07;;;;;;;5.15;2.20;;;;;;;26.07;52.09;100265.03;10387697;28;20406;-64
2023/08/22 07:53:09;;;;;;;3.63;2.00;;;;;;;25.87;51.74;100270.03;10386825;28;20041;-65
2023/08/22 07:58:11;;;;;;;4.68;2.13;;;;;;;25.83;51.53;100273.28;10391802;28;20493;-64
2023/08/22 08:03:13;;;;;;;6.05;2.25;;;;;;;26.27;50.76;100273.34;10390178;28;20497;-65
2023/08/22 08:08:15;;;;;;;4.53;2.17;;;;;;;27.29;48.78;100279.47;10386876;28;20387;-64
2023/08/22 08:13:17;;;;;;;5.03;2.10;;;;;;;28.13;47.49;100264.28;10385684;28;20041;-64
2023/08/22 08:18:20;;;;;;;3.53;2.10;;;;;;;28.65;46.36;100261.91;10388456;28;20045;-64
2023/08/22 08:23:22;;;;;;;4.43;1.88;;;;;;;29.14;45.61;100252.78;10385958;28;20054;-65
2023/08/22 08:28:25;;;;;;;3.42;1.88;;;;;;;28.84;45.56;100263.91;10387471;28;20441;-65
2023/08/22 08:33:27;;;;;;;3.15;1.80;;;;;;;28.97;44.52;100252.34;10387740;28;20045;-65
2023/08/22 08:38:28;;;;;;;3.08;1.80;;;;;;;29.26;44.11;100251.16;10386616;28;20056;-65
2023/08/22 08:43:34;;;;;;;4.68;2.03;;;;;;;29.35;41.62;100248.09;10387741;28;20500;-64
2023/08/22 08:48:38;;;;;;;4.57;1.98;;;;;;;29.66;41.78;100244.81;10388639;28;20053;-63
2023/08/22 08:53:40;;;;;;;3.95;1.80;;;;;;;29.53;41.28;100260.97;10398469;28;20140;-65
2023/08/22 08:58:43;;;;;;;5.68;1.95;;;;;;;29.43;41.01;100256.00;10386891;28;20053;-65
2023/08/22 09:03:46;;;;;;;7.32;2.08;;;;;;;29.78;40.60;100256.66;10386566;28;20520;-65
2023/08/22 09:09:05;;;;;;;5.22;2.17;;;;;;;29.27;39.01;100256.38;10398931;28;20143;-64
2023/08/22 09:14:08;;;;;;;;;;;;;;;29.85;39.10;100254.75;10395056;28;20104;-64
2023/08/22 09:19:14;;;;;;;3.60;1.80;;;;;;;29.96;38.71;100264.13;10402881;28;19925;-65
2023/08/22 09:24:16;;;;;;;4.45;1.80;;;;;;;29.85;40.08;100262.84;10394207;28;20059;-65
2023/08/22 09:29:33;;;;;;;5.28;1.83;;;;;;;30.17;38.22;100270.09;10394929;28;20045;-65
2023/08/22 09:34:37;;;;;;;8.43;2.17;;;;;;;30.79;38.86;100260.59;10394395;28;20132;-66
2023/08/22 09:39:54;;;;;;;5.05;2.00;;;;;;;30.66;36.99;100256.91;10396038;28;20049;-65
2023/08/22 09:44:57;;;;;;;3.42;1.60;;;;;;;30.70;38.36;100256.50;10395744;28;20042;-65
2023/08/22 09:50:04;;;;;;;4.40;1.80;;;;;;;29.88;38.87;100265.13;10395050;28;20037;-65
2023/08/22 09:55:10;;;;;;;3.05;1.73;;;;;;;29.45;39.81;100266.56;10392524;28;20418;-64
2023/08/22 10:00:13;;;;;;;4.90;1.83;;;;;;;29.01;40.51;100275.16;10392057;28;20140;-64
2023/08/22 10:05:15;;;;;;;3.35;1.52;;;;;;;28.71;39.56;100279.13;10393058;28;20091;-65
2023/08/22 10:10:17;;;;;;;6.50;2.03;;;;;;;28.64;40.28;100276.44;10393897;28;20115;-64
2023/08/22 10:15:20;;;;;;;5.93;1.60;;;;;;;28.91;39.11;100263.94;10392641;28;20131;-64
2023/08/22 10:20:22;;;;;;;5.18;2.13;;;;;;;29.47;38.96;100261.81;10403608;28;20032;-65
2023/08/22 10:25:47;;;;;;;3.08;1.67;;;;;;;29.53;37.14;100250.19;10391793;28;20046;-64
2023/08/22 10:31:05;;;;;;;3.13;1.52;;;;;;;29.61;36.09;100255.38;10405738;28;20515;-65
2023/08/22 10:36:17;;;;;;;3.70;1.85;;;;;;;29.77;36.78;100257.66;10390871;28;20103;-64
2023/08/22 10:41:23;;;;;;;3.95;1.65;;;;;;;29.81;36.45;100248.13;10391586;28;20040;-65
2023/08/22 10:47:05;;;;;;;3.38;1.50;;;;;;;29.66;37.37;100236.75;10389664;28;20124;-64
2023/08/22 10:52:08;;;;;;;4.75;1.60;;;;;;;29.18;37.93;100240.56;10381693;28;20046;-65
2023/08/22 10:57:19;;;;;;;3.35;1.52;;;;;;;28.64;38.83;100248.66;10389111;28;20038;-64
2023/08/22 11:02:23;;;;;;;3.67;1.60;;;;;;;28.63;38.92;100239.75;10392026;28;20130;-65
2023/08/22 11:07:26;;;;;;;4.32;1.70;;;;;;;28.65;38.06;100239.56;10391189;28;20041;-64
2023/08/22 11:12:28;;;;;;;4.00;1.80;;;;;;;28.57;39.21;100242.41;10394333;28;20308;-64
2023/08/22 11:17:31;;;;;;;5.63;1.73;;;;;;;28.67;38.45;100245.56;10426479;28;20421;-65
2023/08/22 11:22:33;;;;;;;4.65;2.00;;;;;;;28.87;38.82;100243.81;10380613;28;20048;-64
2023/08/22 11:27:39;;;;;;;4.93;1.80;;;;;;;28.86;37.43;100234.91;10386726;28;20044;-64
2023/08/22 11:32:41;;;;;;;6.30;2.00;;;;;;;28.87;38.29;100228.50;10388168;28;20072;-64
2023/08/22 11:37:44;;;;;;;4.97;1.60;;;;;;;28.99;38.48;100228.75;10389033;28;20045;-65
2023/08/22 11:42:48;;;;;;;3.92;1.80;;;;;;;29.02;37.10;100231.03;10388658;28;20135;-63
2023/08/22 11:47:53;;;;;;;4.53;2.28;;;;;;;29.00;38.16;100219.63;10395392;28;20052;-63
2023/08/22 11:52:58;;;;;;;3.85;1.70;;;;;;;28.99;38.15;100226.88;10388784;28;20546;-63
2023/08/22 11:58:01;;;;;;;3.03;1.70;;;;;;;29.03;38.28;100224.63;10404546;28;20404;-63
2023/08/22 12:03:05;;;;;;;5.00;1.70;;;;;;;29.20;38.05;100220.50;10390731;28;20124;-63
2023/08/22 12:08:11;;;;;;;3.97;1.80;;;;;;;29.50;37.54;100212.91;10387667;28;20053;-64
2023/08/22 12:13:18;;;;;;;4.13;1.80;;;;;;;29.47;36.40;100229.47;10389291;28;20053;-63
2023/08/22 12:18:29;;;;;;;4.25;2.25;;;;;;;29.36;36.66;100217.41;10388181;28;20047;-63
2023/08/22 12:23:31;;;;;;;3.40;1.67;;;;;;;29.22;37.15;100223.81;10389565;28;20483;-64
2023/08/22 12:28:33;;;;;;;5.85;1.70;;;;;;;29.21;37.22;100221.31;10387633;28;20049;-63
2023/08/22 12:33:35;;;;;;;3.85;1.77;;;;;;;29.52;37.15;100222.41;10386677;28;20053;-63
2023/08/22 12:38:37;;;;;;;2.65;1.55;;;;;;;30.06;36.75;100216.81;10388400;28;20049;-64
2023/08/22 12:43:38;;;;;;;2.40;1.80;;;;;;;30.20;36.01;100209.50;10396990;28;20052;-65
2023/08/22 12:48:40;;;;;;;3.35;1.70;;;;;;;30.34;36.86;100217.34;10398647;28;20473;-64
2023/08/22 12:53:42;;;;;;;3.50;1.98;;;;;;;30.45;36.01;100216.72;10395642;28;20064;-64
2023/08/22 12:58:44;;;;;;;2.70;1.60;;;;;;;30.49;35.83;100219.81;10395306;28;20048;-64
2023/08/22 13:03:47;;;;;;;2.55;1.58;;;;;;;30.50;36.03;100210.66;10395332;28;20061;-64
2023/08/22 13:08:49;;;;;;;4.35;1.60;;;;;;;30.35;35.99;100202.81;10400100;28;20054;-64
2023/08/22 13:14:00;;;;;;;3.63;1.80;;;;;;;30.39;36.32;100206.75;10395309;28;20037;-64
2023/08/22 13:19:02;;;;;;;2.55;1.60;;;;;;;30.76;35.60;100212.44;10394578;28;20045;-64
2023/08/22 13:24:04;;;;;;;4.25;1.70;;;;;;;30.70;35.39;100199.81;10402367;28;20635;-65
2023/08/22 13:29:06;;;;;;;4.32;2.25;;;;;;;30.25;36.01;100207.84;10394013;28;20045;-64
2023/08/22 13:34:09;;;;;;;2.95;1.58;;;;;;;29.83;36.38;100206.44;10392144;28;20504;-64
2023/08/22 13:39:11;;;;;;;5.00;1.60;;;;;;;29.65;36.66;100203.56;10396954;28;20505;-64
2023/08/22 13:44:13;;;;;;;4.10;1.80;;;;;;;29.53;36.34;100205.22;10389818;28;20033;-64
2023/08/22 13:49:15;;;;;;;3.05;1.85;;;;;;;29.50;36.71;100205.63;10392770;28;20037;-64
2023/08/22 13:54:21;;;;;;;3.22;1.63;;;;;;;29.29;37.22;100208.50;10389067;28;20474;-64
2023/08/22 13:59:23;;;;;;;2.53;1.50;;;;;;;29.44;37.67;100209.13;10390617;28;20069;-64
2023/08/22 14:04:25;;;;;;;4.80;1.88;;;;;;;29.40;37.54;100209.78;10388312;28;20057;-64
2023/08/22 14:09:28;;;;;;;4.35;1.60;;;;;;;29.23;37.56;100212.00;10390400;28;20057;-65
2023/08/22 14:14:30;;;;;;;4.47;1.77;;;;;;;29.31;37.28;100206.41;10388780;28;20045;-64
2023/08/22 14:19:32;;;;;;;1.67;1.30;;;;;;;29.52;37.46;100208.13;10394311;28;20051;-64
2023/08/22 14:24:34;;;;;;;6.50;2.22;;;;;;;29.57;37.49;100201.06;10389705;28;20053;-64
2023/08/22 14:29:36;;;;;;;3.58;1.73;;;;;;;29.50;37.20;100207.50;10392409;28;20052;-64
2023/08/22 14:34:38;;;;;;;2.05;1.38;;;;;;;29.26;36.81;100195.41;10388916;28;20064;-64
2023/08/22 14:39:40;;;;;;;3.90;1.70;;;;;;;29.14;37.55;100212.38;10389404;28;20518;-64
2023/08/22 14:44:42;;;;;;;4.63;1.58;;;;;;;28.75;36.60;100213.94;10423356;28;20045;-64
2023/08/22 14:49:44;;;;;;;4.78;1.95;;;;;;;28.96;37.48;100203.06;10388523;28;20049;-63
2023/08/22 14:54:46;;;;;;;2.80;1.52;;;;;;;29.11;37.02;100194.81;10394795;28;20056;-64
2023/08/22 14:59:48;;;;;;;3.80;1.63;;;;;;;28.95;37.17;100196.00;10389143;28;20594;-63
2023/08/22 15:04:50;;;;;;;2.90;1.67;;;;;;;28.60;37.45;100197.13;10394914;28;20053;-63
2023/08/22 15:09:52;;;;;;;1.95;1.50;;;;;;;28.47;38.02;100199.75;10387571;28;20095;-64
2023/08/22 15:14:55;;;;;;;2.65;1.50;;;;;;;28.63;37.81;100203.94;10387589;28;20614;-63
2023/08/22 15:19:58;;;;;;;3.78;1.50;;;;;;;28.77;37.67;100195.72;10389634;28;20420;-63
2023/08/22 15:25:00;;;;;;;3.38;1.75;;;;;;;28.72;38.38;100192.81;10384525;28;20038;-63
2023/08/22 15:30:02;;;;;;;2.60;1.85;;;;;;;28.59;38.36;100187.38;10388875;28;20345;-63
2023/08/22 15:35:06;;;;;;;4.00;1.60;;;;;;;28.52;38.49;100189.22;10384210;28;20057;-66
2023/08/22 15:40:08;;;;;;;3.85;1.70;;;;;;;28.43;38.78;100192.25;10387165;28;20079;-63
2023/08/22 15:45:10;;;;;;;4.57;1.65;;;;;;;28.55;38.67;100193.34;10403263;28;20041;-64
2023/08/22 15:50:12;;;;;;;4.20;1.60;;;;;;;28.56;38.55;100192.34;10385837;28;20540;-64
2023/08/22 15:55:15;;;;;;;3.40;1.70;;;;;;;28.52;39.09;100191.06;10392982;28;20060;-64
2023/08/22 16:00:17;;;;;;;2.50;1.50;;;;;;;28.36;38.68;100186.03;10385726;28;20064;-65
2023/08/22 16:05:20;;;;;;;5.13;1.73;;;;;;;28.31;38.87;100183.94;10382664;28;20504;-64
2023/08/22 16:10:23;;;;;;;3.03;1.65;;;;;;;28.26;39.51;100186.34;10399347;28;20137;-64
2023/08/22 16:15:26;;;;;;;3.78;1.63;;;;;;;28.09;39.66;100191.25;10383691;28;21107;-64
2023/08/22 16:20:30;;;;;;;5.82;1.63;;;;;;;27.90;39.87;100188.44;10390726;28;21117;-64
2023/08/22 16:25:32;;;;;;;2.75;1.60;;;;;;;27.80;39.90;100191.47;10382398;28;20045;-65
2023/08/22 16:30:34;;;;;;;3.83;1.90;;;;;;;27.44;40.40;100186.19;10421205;28;20045;-64
2023/08/22 16:35:38;;;;;;;3.50;1.80;;;;;;;27.44;40.67;100191.56;10393735;28;20072;-64
2023/08/22 16:40:40;;;;;;;7.13;1.92;;;;;;;27.39;41.09;100193.19;10384783;28;20053;-64
2023/08/22 16:45:42;;;;;;;3.60;1.90;;;;;;;27.21;41.08;100196.34;10379552;28;20041;-64
2023/08/22 16:50:46;;;;;;;4.07;2.22;;;;;;;27.09;41.23;100200.53;10385308;28;20041;-64
2023/08/22 16:55:48;;;;;;;3.97;1.80;;;;;;;27.12;41.10;100204.66;10380853;28;20041;-64
2023/08/22 17:00:52;;;;;;;5.05;2.05;;;;;;;27.02;41.43;100204.16;10387455;28;20060;-65
2023/08/22 17:05:54;;;;;;;10.60;2.42;;;;;;;26.95;41.25;100203.25;10384862;28;20059;-65
2023/08/22 17:11:06;;;;;;;4.25;2.10;;;;;;;26.84;41.38;100201.91;10385799;28;20061;-65
2023/08/22 17:16:10;;;;;;;4.28;2.13;;;;;;;26.94;41.47;100207.78;10396165;28;20049;-65
2023/08/22 17:21:14;;;;;;;3.58;1.80;;;;;;;27.06;41.40;100208.94;10413639;28;20271;-65
2023/08/22 17:26:16;;;;;;;3.97;1.90;;;;;;;26.97;41.83;100210.09;10398571;28;20057;-65
2023/08/22 17:31:18;;;;;;;4.47;1.77;;;;;;;26.78;42.06;100215.22;10396022;28;20490;-65
2023/08/22 17:36:21;;;;;;;2.70;1.80;;;;;;;26.47;42.00;100210.06;10391779;28;20055;-63
2023/08/22 17:41:23;;;;;;;3.97;1.83;;;;;;;26.25;42.70;100208.34;10405812;28;20203;-63
2023/08/22 17:46:25;;;;;;;6.00;1.80;;;;;;;26.09;42.71;100216.56;10390816;28;20485;-64
2023/08/22 17:51:26;;;;;;;6.10;2.10;;;;;;;26.09;43.00;100208.53;10388927;28;20485;-64
2023/08/22 17:56:28;;;;;;;3.03;1.90;;;;;;;25.98;43.37;100211.69;10388933;28;20059;-63
2023/08/22 18:01:31;;;;;;;3.97;1.98;;;;;;;25.82;43.56;100208.13;10386873;28;20060;-64
2023/08/22 18:06:33;;;;;;;3.35;1.80;;;;;;;25.69;43.63;100213.25;10392463;28;20045;-64
2023/08/22 18:11:37;;;;;;;3.60;1.80;;;;;;;25.56;44.16;100214.91;10389507;28;20653;-64
2023/08/22 18:16:39;;;;;;;6.70;2.10;;;;;;;25.51;44.35;100222.66;10371198;28;20649;-64
2023/08/22 18:21:41;;;;;;;4.85;2.40;;;;;;;25.50;44.90;100216.47;10394247;28;20058;-63
2023/08/22 18:26:44;;;;;;;3.47;2.10;;;;;;;25.38;45.29;100223.25;10389906;28;20049;-63
2023/08/22 18:31:48;;;;;;;4.50;2.15;;;;;;;25.19;45.94;100220.19;10416536;28;20061;-63
2023/08/22 18:36:52;;;;;;;4.05;2.20;;;;;;;24.85;46.86;100221.44;10406622;28;20403;-63
2023/08/22 18:41:55;;;;;;;4.55;2.08;;;;;;;24.74;47.43;100237.03;10399421;28;20244;-64
2023/08/22 18:46:58;;;;;;;3.15;1.88;;;;;;;24.58;47.84;100237.91;10390104;28;20183;-64
2023/08/22 18:51:59;;;;;;;3.45;2.10;;;;;;;24.45;48.32;100242.16;10389583;28;20480;-64
2023/08/22 18:57:02;;;;;;;3.55;2.15;;;;;;;24.33;48.77;100238.19;10386606;28;20048;-64
2023/08/22 19:02:04;;;;;;;4.68;2.45;;;;;;;24.09;49.42;100249.75;10391336;28;20115;-63
2023/08/22 19:07:07;;;;;;;5.53;2.60;;;;;;;23.95;49.47;100256.63;10387770;28;20037;-64
2023/08/22 19:12:09;;;;;;;7.43;2.88;;;;;;;23.84;49.95;100258.81;10394583;28;20045;-63
2023/08/22 19:17:11;;;;;;;8.35;3.00;;;;;;;23.80;50.14;100266.31;10388066;28;20052;-64
2023/08/22 19:22:14;;;;;;;5.28;2.80;;;;;;;23.52;50.59;100264.97;10384014;28;20053;-63
2023/08/22 19:27:16;;;;;;;6.57;2.65;;;;;;;23.32;51.43;100258.25;10404639;28;20050;-64
2023/08/22 19:32:18;;;;;;;4.45;2.35;;;;;;;23.14;51.93;100268.25;10402608;28;20527;-64
2023/08/22 19:37:40;;;;;;;4.15;2.55;;;;;;;23.11;52.12;100284.56;10386186;28;20033;-63
2023/08/22 19:42:42;;;;;;;5.38;2.60;;;;;;;23.06;52.30;100281.56;10387284;28;20706;-64
2023/08/22 19:47:44;;;;;;;6.25;2.60;;;;;;;22.80;52.88;100284.31;10389950;28;20044;-64
2023/08/22 19:52:47;;;;;;;4.70;2.60;;;;;;;22.52;53.78;100286.34;10388448;28;20136;-64
2023/08/22 19:57:49;;;;;;;4.50;2.45;;;;;;;22.45;53.95;100284.47;10394263;28;20053;-64
2023/08/22 20:02:51;;;;;;;3.88;2.28;;;;;;;22.41;53.92;100283.94;10387841;28;20041;-65
2023/08/22 20:07:55;;;;;;;4.57;3.00;;;;;;;22.44;53.89;100288.13;10390799;28;20048;-64
2023/08/22 20:12:57;;;;;;;4.25;2.50;;;;;;;22.37;54.17;100292.44;10389578;28;20470;-64
2023/08/22 20:17:59;;;;;;;6.70;2.50;;;;;;;22.35;54.61;100297.06;10388119;28;20049;-65
2023/08/22 20:23:02;;;;;;;4.13;2.45;;;;;;;22.23;54.81;100293.81;10388977;28;21553;-64
2023/08/22 20:28:04;;;;;;;5.57;2.45;;;;;;;22.06;55.01;100300.06;10392287;28;20536;-64
2023/08/22 20:33:06;;;;;;;5.20;2.30;;;;;;;21.95;55.40;100304.75;10401037;28;20161;-64
2023/08/22 20:38:09;;;;;;;4.85;2.35;;;;;;;21.78;55.80;100301.97;10394674;28;20135;-65
2023/08/22 20:43:11;;;;;;;5.68;2.72;;;;;;;21.60;56.31;100308.28;10401039;28;20132;-65
2023/08/22 20:48:14;;;;;;;10.43;3.38;;;;;;;21.50;56.36;100308.38;10422411;28;20049;-65
2023/08/22 20:53:16;;;;;;;4.28;2.47;;;;;;;21.48;56.51;100309.50;10404860;28;20045;-62
2023/08/22 20:58:19;;;;;;;4.55;2.40;;;;;;;21.44;56.73;100305.47;10412784;28;20067;-65
2023/08/22 21:03:22;;;;;;;4.55;2.50;;;;;;;21.31;56.99;100320.97;10394949;28;20408;-65
2023/08/22 21:08:25;;;;;;;4.50;2.50;;;;;;;21.27;57.22;100311.59;10404716;28;20045;-65
2023/08/22 21:13:29;;;;;;;5.60;3.05;;;;;;;21.20;57.42;100316.69;10396942;28;20377;-65
2023/08/22 21:18:33;;;;;;;5.03;2.72;;;;;;;21.12;57.80;100319.25;10408172;28;20179;-65
2023/08/22 21:23:35;;;;;;;4.00;2.50;;;;;;;21.04;57.91;100317.34;10417845;28;20456;-65
2023/08/22 21:28:38;;;;;;;4.63;2.50;;;;;;;20.99;57.86;100313.44;10409882;28;20045;-64
2023/08/22 21:33:41;;;;;;;7.25;3.00;;;;;;;20.91;58.01;100311.53;10398736;28;20051;-64
2023/08/22 21:38:43;;;;;;;6.00;2.80;;;;;;;20.77;58.48;100319.16;10402860;28;20143;-65
2023/08/22 21:43:45;;;;;;;5.95;2.80;;;;;;;20.69;58.74;100309.28;10392666;28;20056;-64
2023/08/22 21:48:47;;;;;;;5.40;2.35;;;;;;;20.69;58.86;100311.09;10393619;28;20057;-64
2023/08/22 21:53:50;;;;;;;5.28;2.67;;;;;;;20.65;59.02;100315.88;10392477;28;20041;-65
2023/08/22 21:58:51;;;;;;;5.25;2.88;;;;;;;20.61;58.96;100308.31;10393522;28;20091;-64
2023/08/22 22:03:53;;;;;;;6.20;2.65;;;;;;;20.55;58.87;100309.72;10391793;28;20042;-65
2023/08/22 22:08:55;;;;;;;10.27;3.35;;;;;;;20.49;59.03;100314.78;10392384;28;20709;-64
2023/08/22 22:13:57;;;;;;;4.15;2.42;;;;;;;20.43;59.08;100313.56;10390216;28;20052;-64
2023/08/22 22:18:59;;;;;;;5.93;2.90;;;;;;;20.31;59.57;100314.72;10391070;28;20046;-65
2023/08/22 22:24:01;;;;;;;5.13;2.67;;;;;;;20.20;59.57;100314.88;10392139;28;20053;-64
2023/08/22 22:29:03;;;;;;;5.18;2.88;;;;;;;20.07;60.24;100317.81;10386197;28;20044;-64
2023/08/22 22:34:05;;;;;;;5.75;2.45;;;;;;;20.05;60.14;100326.94;10384824;28;20053;-64
2023/08/22 22:39:07;;;;;;;6.28;2.85;;;;;;;20.08;60.12;100313.34;10381544;28;20498;-65
2023/08/22 22:44:10;;;;;;;8.02;3.17;;;;;;;20.06;60.24;100312.66;10389485;28;20070;-65
2023/08/22 22:49:12;;;;;;;4.45;2.90;;;;;;;20.00;60.08;100311.44;10393288;28;20041;-65
2023/08/22 22:54:14;;;;;;;9.40;3.10;;;;;;;19.94;60.54;100313.81;10402401;28;20041;-65
2023/08/22 22:59:16;;;;;;;5.82;2.85;;;;;;;19.91;60.53;100324.72;10389639;28;20112;-64
2023/08/22 23:04:18;;;;;;;6.18;3.20;;;;;;;19.85;60.49;100311.97;10409260;28;20102;-64
2023/08/22 23:09:20;;;;;;;6.90;3.25;;;;;;;19.79;60.75;100317.81;10395013;28;20048;-65
2023/08/22 23:14:22;;;;;;;6.03;2.70;;;;;;;19.71;60.66;100313.22;10388651;28;20052;-64